Time;durP1;ratioP1;P1;durP2;ratioP2;P2;SDS_P1;SDS_P2;PMS_P1;PMS_P2;Temp;Humidity;BMP_temperature;BMP_pressure;BME280_temperature;BME280_humidity;BME280_pressure;Samples;Min_cycle;Max_cycle;Signal;HPM_P1;HPM_P2
2023/07/06 00:01:02;;;;;;;3.17;1.00;;;19.10;52.00;;;;;;5040913;28;20106;-77
2023/07/06 00:03:31;;;;;;;2.38;1.08;;;19.10;52.10;;;;;;5024974;28;20258;-78
2023/07/06 00:06:00;;;;;;;2.75;1.45;;;19.10;52.10;;;;;;5047900;28;20033;-79
2023/07/06 00:08:29;;;;;;;3.92;1.17;;;19.10;52.10;;;;;;5059768;28;20155;-78
2023/07/06 00:10:58;;;;;;;1.60;0.95;;;19.10;52.10;;;;;;5038437;28;20108;-78
2023/07/06 00:13:25;;;;;;;2.92;0.85;;;19.10;52.10;;;;;;5048552;28;20400;-78
2023/07/06 00:15:51;;;;;;;2.17;0.73;;;19.10;52.20;;;;;;5055816;28;20033;-78
2023/07/06 00:18:20;;;;;;;1.95;1.00;;;19.10;52.20;;;;;;5040598;28;20092;-79
2023/07/06 00:20:49;;;;;;;2.38;1.20;;;19.00;52.10;;;;;;5058196;28;20029;-79
2023/07/06 00:23:16;;;;;;;2.80;1.00;;;19.00;52.10;;;;;;5047785;28;20032;-79
2023/07/06 00:25:42;;;;;;;3.92;1.10;;;19.00;52.10;;;;;;5046451;28;20028;-79
2023/07/06 00:28:11;;;;;;;1.30;0.95;;;19.00;52.20;;;;;;5030734;28;20706;-79
2023/07/06 00:30:52;;;;;;;2.95;1.42;;;19.00;52.30;;;;;;5052703;28;20487;-80
2023/07/06 00:33:21;;;;;;;4.05;1.42;;;18.90;52.10;;;;;;5022527;28;20523;-79
2023/07/06 00:35:47;;;;;;;3.58;1.15;;;18.90;52.20;;;;;;5040649;28;20041;-80
2023/07/06 00:38:23;;;;;;;4.63;1.33;;;18.80;52.10;;;;;;5039927;28;20056;-79
2023/07/06 00:40:52;;;;;;;1.17;1.05;;;18.80;52.30;;;;;;5032683;28;20035;-78
2023/07/06 00:43:21;;;;;;;2.70;1.35;;;18.70;52.10;;;;;;5035573;28;20500;-78
2023/07/06 00:45:56;;;;;;;1.90;1.15;;;18.70;52.30;;;;;;5050148;28;20094;-78
2023/07/06 00:48:32;;;;;;;4.50;1.17;;;18.60;52.20;;;;;;5042770;28;20073;-78
2023/07/06 00:51:07;;;;;;;3.13;1.20;;;18.60;52.30;;;;;;5036146;28;20086;-79
2023/07/06 00:53:38;;;;;;;3.25;1.55;;;18.60;52.40;;;;;;5022307;28;20524;-79
2023/07/06 00:56:11;;;;;;;2.60;1.30;;;18.60;52.50;;;;;;5025039;28;20031;-79
2023/07/06 00:58:40;;;;;;;;;;;18.50;52.40;;;;;;5035366;28;20051;-79
2023/07/06 01:01:08;;;;;;;3.80;1.35;;;18.50;52.90;;;;;;5024212;28;19917;-79
2023/07/06 01:03:43;;;;;;;1.25;0.90;;;18.50;52.20;;;;;;5039728;28;20306;-79
2023/07/06 01:06:24;;;;;;;1.60;1.00;;;18.50;52.40;;;;;;5046806;28;20028;-79
2023/07/06 01:08:57;;;;;;;3.28;1.17;;;18.50;52.50;;;;;;5045340;28;20053;-79
2023/07/06 01:11:24;;;;;;;2.53;1.05;;;18.40;52.40;;;;;;5040457;28;20192;-78
2023/07/06 01:13:53;;;;;;;3.28;1.20;;;18.40;52.50;;;;;;5035104;28;20121;-79
2023/07/06 01:16:51;;;;;;;3.40;1.30;;;18.50;52.80;;;;;;5051103;28;20494;-79
2023/07/06 01:19:36;;;;;;;3.47;1.25;;;18.50;53.60;;;;;;5046628;28;20036;-79
2023/07/06 01:22:30;;;;;;;3.50;1.23;;;18.50;53.00;;;;;;5045717;28;20032;-79
2023/07/06 01:25:16;;;;;;;2.88;1.58;;;18.40;53.00;;;;;;5034807;28;20089;-80
2023/07/06 01:28:01;;;;;;;4.38;1.50;;;18.40;52.90;;;;;;5053027;28;20033;-82
2023/07/06 01:30:45;;;;;;;2.92;1.48;;;18.40;53.10;;;;;;5022950;28;20375;-79
2023/07/06 01:33:19;;;;;;;2.88;1.02;;;18.40;53.20;;;;;;5047992;28;20106;-78
2023/07/06 01:35:56;;;;;;;2.15;1.10;;;18.40;53.20;;;;;;5043707;28;20036;-79
2023/07/06 01:38:22;;;;;;;2.78;1.40;;;18.30;53.10;;;;;;5026274;28;20576;-80
2023/07/06 01:40:49;;;;;;;2.08;1.10;;;18.30;53.20;;;;;;5025687;28;20105;-80
2023/07/06 01:43:25;;;;;;;1.50;0.85;;;18.30;53.30;;;;;;5009655;28;20025;-80
2023/07/06 01:45:53;;;;;;;3.30;1.50;;;18.30;53.40;;;;;;5052867;28;20048;-79
2023/07/06 01:48:29;;;;;;;3.05;1.20;;;18.30;53.50;;;;;;5035544;28;20140;-79
2023/07/06 01:51:25;;;;;;;2.67;1.27;;;18.20;53.40;;;;;;5059333;28;20020;-80
2023/07/06 01:54:06;;;;;;;2.05;1.10;;;18.20;53.70;;;;;;5021711;28;20479;-80
2023/07/06 01:56:46;;;;;;;4.97;1.40;;;18.20;53.70;;;;;;5043247;28;20036;-80
2023/07/06 01:59:17;;;;;;;3.05;1.30;;;18.20;53.70;;;;;;5044523;28;20075;-80
2023/07/06 02:01:52;;;;;;;3.03;1.13;;;18.20;53.80;;;;;;5046708;28;20037;-81
2023/07/06 02:04:20;;;;;;;2.08;0.93;;;18.20;53.90;;;;;;5045032;28;20508;-80
2023/07/06 02:06:53;;;;;;;3.97;1.35;;;18.10;53.70;;;;;;5046382;28;20047;-81
2023/07/06 02:09:20;;;;;;;3.55;1.67;;;18.10;53.80;;;;;;5033207;28;20072;-80
2023/07/06 02:11:46;;;;;;;3.10;1.20;;;18.10;53.90;;;;;;5039284;28;20025;-79
2023/07/06 02:14:12;;;;;;;1.52;1.10;;;18.20;54.20;;;;;;5026794;28;20037;-79
2023/07/06 02:16:38;;;;;;;2.80;1.40;;;18.10;54.10;;;;;;5052466;28;20041;-79
2023/07/06 02:19:04;;;;;;;2.38;1.45;;;18.10;54.10;;;;;;5058730;28;20029;-78
2023/07/06 02:21:32;;;;;;;2.15;1.33;;;18.10;54.20;;;;;;5026679;28;20507;-78
2023/07/06 02:23:57;;;;;;;2.55;1.40;;;18.10;54.20;;;;;;5039005;28;20554;-80
2023/07/06 02:26:23;;;;;;;2.08;1.40;;;18.10;54.30;;;;;;5040277;28;20332;-80
2023/07/06 02:28:49;;;;;;;1.63;1.17;;;18.10;54.40;;;;;;5051854;28;20038;-80
2023/07/06 02:31:15;;;;;;;2.95;1.17;;;18.10;54.50;;;;;;5028224;28;20476;-80
2023/07/06 02:33:42;;;;;;;2.60;1.40;;;18.10;54.60;;;;;;5046027;28;20036;-79
2023/07/06 02:36:08;;;;;;;2.78;1.58;;;18.00;54.40;;;;;;5052456;28;20496;-80
2023/07/06 02:38:34;;;;;;;3.72;1.52;;;18.00;54.50;;;;;;5025724;28;20095;-80
2023/07/06 02:41:04;;;;;;;3.92;1.50;;;18.00;54.60;;;;;;5044005;28;20033;-80
2023/07/06 02:43:30;;;;;;;3.38;1.85;;;18.00;54.70;;;;;;5027924;28;20036;-79
2023/07/06 02:45:57;;;;;;;5.40;1.23;;;18.00;54.70;;;;;;5061485;28;20036;-79
2023/07/06 02:48:24;;;;;;;2.97;1.15;;;18.00;54.90;;;;;;5053079;28;20047;-78
2023/07/06 02:50:50;;;;;;;3.70;1.55;;;18.00;54.90;;;;;;5053977;28;20025;-78
2023/07/06 02:53:18;;;;;;;2.63;1.25;;;17.90;54.90;;;;;;5030060;28;20565;-78
2023/07/06 02:55:51;;;;;;;3.40;1.42;;;17.90;54.90;;;;;;5042553;28;20036;-78
2023/07/06 02:58:18;;;;;;;1.50;1.40;;;17.90;55.10;;;;;;5059720;28;20040;-78
2023/07/06 03:00:47;;;;;;;3.10;1.23;;;17.90;55.00;;;;;;5031304;28;20127;-77
2023/07/06 03:03:14;;;;;;;6.38;1.40;;;17.90;55.10;;;;;;5033732;28;20056;-77
2023/07/06 03:05:44;;;;;;;2.55;1.77;;;17.90;55.20;;;;;;5049028;28;20148;-77
2023/07/06 03:08:10;;;;;;;2.65;1.40;;;17.90;55.20;;;;;;5064760;28;20039;-77
2023/07/06 03:10:38;;;;;;;2.72;1.20;;;17.90;55.20;;;;;;5033891;28;20481;-77
2023/07/06 03:13:06;;;;;;;3.38;1.48;;;17.90;55.30;;;;;;5050986;28;20045;-78
2023/07/06 03:15:32;;;;;;;4.05;1.83;;;17.90;55.30;;;;;;5056841;28;20046;-78
2023/07/06 03:17:58;;;;;;;1.80;1.20;;;17.90;56.00;;;;;;5043957;28;20361;-77
2023/07/06 03:20:24;;;;;;;4.25;1.70;;;17.90;55.50;;;;;;5063425;28;20107;-78
2023/07/06 03:22:53;;;;;;;2.83;1.20;;;17.90;55.60;;;;;;5040310;28;20025;-78
2023/07/06 03:25:25;;;;;;;3.78;1.75;;;17.80;55.50;;;;;;5049873;28;20041;-77
2023/07/06 03:27:51;;;;;;;3.45;1.90;;;17.80;55.50;;;;;;5068355;28;20484;-79
2023/07/06 03:30:23;;;;;;;5.60;2.08;;;17.80;55.60;;;;;;5067237;28;20036;-79
2023/07/06 03:33:00;;;;;;;2.72;1.90;;;17.80;55.70;;;;;;5056117;28;20454;-78
2023/07/06 03:35:29;;;;;;;3.13;1.42;;;17.80;55.80;;;;;;5045596;28;20021;-78
2023/07/06 03:37:58;;;;;;;2.33;1.23;;;17.80;55.80;;;;;;5037898;28;20102;-79
2023/07/06 03:40:26;;;;;;;4.45;2.25;;;17.80;55.90;;;;;;5046595;28;20024;-79
2023/07/06 03:42:56;;;;;;;3.22;1.80;;;17.80;56.00;;;;;;5037617;28;20408;-79
2023/07/06 03:45:22;;;;;;;3.40;1.35;;;17.70;55.90;;;;;;5044665;28;20119;-79
2023/07/06 03:47:50;;;;;;;5.20;1.67;;;17.70;56.00;;;;;;5031023;28;20499;-77
2023/07/06 03:50:17;;;;;;;2.28;1.38;;;17.70;56.10;;;;;;5011667;28;20032;-79
2023/07/06 03:52:44;;;;;;;3.17;1.30;;;17.70;56.20;;;;;;5053155;28;20496;-78
2023/07/06 03:55:14;;;;;;;2.97;1.45;;;17.70;56.30;;;;;;5058360;28;20033;-78
2023/07/06 03:57:41;;;;;;;4.78;2.03;;;17.60;56.30;;;;;;5016996;28;20159;-78
2023/07/06 04:00:16;;;;;;;2.90;1.63;;;17.60;56.30;;;;;;5045073;28;20071;-78
2023/07/06 04:02:43;;;;;;;2.40;1.50;;;17.60;56.40;;;;;;5031450;28;20041;-78
2023/07/06 04:05:09;;;;;;;5.18;1.90;;;17.60;56.50;;;;;;5056346;28;20029;-77
2023/07/06 04:07:35;;;;;;;3.60;2.10;;;17.60;56.60;;;;;;5036326;28;20055;-78
2023/07/06 04:10:03;;;;;;;2.67;1.67;;;17.60;56.60;;;;;;5047222;28;20090;-78
2023/07/06 04:12:32;;;;;;;5.22;1.85;;;17.60;56.70;;;;;;5037165;28;20393;-77
2023/07/06 04:14:58;;;;;;;2.50;1.40;;;17.60;56.70;;;;;;5036026;28;20450;-78
2023/07/06 04:17:24;;;;;;;3.45;1.90;;;17.60;56.80;;;;;;5050023;28;20086;-78
2023/07/06 04:19:53;;;;;;;4.13;2.03;;;17.60;56.80;;;;;;5066805;28;20032;-77
2023/07/06 04:22:19;;;;;;;2.10;1.45;;;17.60;56.90;;;;;;5048502;28;20056;-78
2023/07/06 04:24:45;;;;;;;2.30;1.35;;;17.60;56.90;;;;;;5038910;28;20074;-78
2023/07/06 04:27:11;;;;;;;3.15;2.00;;;17.60;57.00;;;;;;5061962;28;20029;-78
2023/07/06 04:29:37;;;;;;;2.63;1.50;;;17.60;57.00;;;;;;5030648;28;20431;-78
2023/07/06 04:32:04;;;;;;;2.53;2.22;;;17.60;57.10;;;;;;5062558;28;20563;-78
2023/07/06 04:34:33;;;;;;;1.73;1.17;;;17.60;57.10;;;;;;5065120;28;20421;-78
2023/07/06 04:36:58;;;;;;;3.55;1.85;;;17.50;57.00;;;;;;5051953;28;20074;-78
2023/07/06 04:39:26;;;;;;;2.47;1.73;;;17.50;57.00;;;;;;5043602;28;20025;-77
2023/07/06 04:41:52;;;;;;;3.15;2.30;;;17.50;57.10;;;;;;5063807;28;20366;-78
2023/07/06 04:44:18;;;;;;;2.30;2.10;;;17.50;57.10;;;;;;5066172;28;20086;-77
2023/07/06 04:46:44;;;;;;;2.25;1.92;;;17.50;57.20;;;;;;5060108;28;20048;-78
2023/07/06 04:49:09;;;;;;;2.95;1.70;;;17.50;57.20;;;;;;5038165;28;20036;-78
2023/07/06 04:51:35;;;;;;;4.78;2.33;;;17.50;57.80;;;;;;5046611;28;20024;-78
2023/07/06 04:54:03;;;;;;;2.13;1.67;;;17.50;57.30;;;;;;5035620;28;20038;-78
2023/07/06 04:56:29;;;;;;;3.63;1.60;;;17.50;57.40;;;;;;5042122;28;20123;-78
2023/07/06 04:58:56;;;;;;;4.90;1.65;;;17.50;57.40;;;;;;5055094;28;20037;-78
2023/07/06 05:01:24;;;;;;;3.38;1.63;;;17.60;57.70;;;;;;5042025;28;20594;-78
2023/07/06 05:03:52;;;;;;;2.55;1.60;;;17.60;57.70;;;;;;5033243;28;20045;-78
2023/07/06 05:06:19;;;;;;;2.15;1.83;;;17.60;57.70;;;;;;5046338;28;20448;-78
2023/07/06 05:08:46;;;;;;;3.75;1.50;;;17.50;57.60;;;;;;5042369;28;20055;-78
2023/07/06 05:11:12;;;;;;;3.75;2.15;;;17.60;57.80;;;;;;5033568;28;20405;-77
2023/07/06 05:13:38;;;;;;;4.68;1.67;;;17.60;57.80;;;;;;5043763;28;20040;-78
2023/07/06 05:16:04;;;;;;;2.42;1.60;;;17.60;57.80;;;;;;5039170;28;20547;-80
2023/07/06 05:18:31;;;;;;;4.07;1.58;;;17.60;57.80;;;;;;5033076;28;20036;-80
2023/07/06 05:20:57;;;;;;;2.13;1.60;;;17.60;57.80;;;;;;5047192;28;20029;-80
2023/07/06 05:23:28;;;;;;;2.25;1.65;;;17.70;58.00;;;;;;5034100;28;20032;-80
2023/07/06 05:25:56;;;;;;;4.10;1.48;;;17.70;58.00;;;;;;5048285;28;20515;-78
2023/07/06 05:28:22;;;;;;;3.00;1.42;;;17.80;58.10;;;;;;5037777;28;20048;-78
2023/07/06 05:30:49;;;;;;;1.30;1.20;;;17.80;58.10;;;;;;5048387;28;20110;-77
2023/07/06 05:33:15;;;;;;;2.67;1.40;;;17.90;58.20;;;;;;5045702;28;20049;-77
2023/07/06 05:35:42;;;;;;;1.70;1.40;;;18.00;58.30;;;;;;5045334;28;20036;-78
2023/07/06 05:38:10;;;;;;;2.22;1.60;;;18.00;58.20;;;;;;5030452;28;20024;-76
2023/07/06 05:40:40;;;;;;;3.28;1.40;;;18.00;58.10;;;;;;5044963;28;20668;-76
2023/07/06 05:43:07;;;;;;;2.53;1.80;;;18.10;58.30;;;;;;5032645;28;20040;-77
2023/07/06 05:45:33;;;;;;;2.30;1.60;;;18.10;58.20;;;;;;5043998;28;20235;-78
2023/07/06 05:47:59;;;;;;;2.97;1.38;;;18.10;58.20;;;;;;5025566;28;20277;-77
2023/07/06 05:50:25;;;;;;;4.65;1.90;;;18.20;58.40;;;;;;5043322;28;20041;-77
2023/07/06 05:52:52;;;;;;;4.03;1.38;;;18.20;58.40;;;;;;5041391;28;20033;-76
2023/07/06 05:55:18;;;;;;;3.85;1.80;;;18.20;58.50;;;;;;5029692;28;20122;-77
2023/07/06 05:57:45;;;;;;;2.97;1.45;;;18.20;58.40;;;;;;5044335;28;20124;-77
2023/07/06 06:00:13;;;;;;;2.10;1.40;;;18.30;58.60;;;;;;5040202;28;20048;-77
2023/07/06 06:02:39;;;;;;;3.03;1.35;;;18.30;58.60;;;;;;5019099;28;20461;-77
2023/07/06 06:05:06;;;;;;;2.97;1.80;;;18.30;58.50;;;;;;5041342;28;20040;-77
2023/07/06 06:07:33;;;;;;;1.60;1.50;;;18.40;58.70;;;;;;5041468;28;20201;-77
2023/07/06 06:10:03;;;;;;;4.07;1.95;;;18.50;58.70;;;;;;5040129;28;20044;-77
2023/07/06 06:12:31;;;;;;;2.97;2.05;;;18.50;58.60;;;;;;5044173;28;20332;-77
2023/07/06 06:14:58;;;;;;;2.60;1.42;;;18.60;58.80;;;;;;5039036;28;20132;-77
2023/07/06 06:17:28;;;;;;;5.55;2.22;;;18.70;58.90;;;;;;5039938;28;20041;-77
2023/07/06 06:19:54;;;;;;;3.28;1.60;;;18.70;58.70;;;;;;5036138;28;20089;-77
2023/07/06 06:22:22;;;;;;;1.67;1.58;;;18.80;58.90;;;;;;5043289;28;20594;-76
2023/07/06 06:24:48;;;;;;;2.10;1.35;;;18.90;59.00;;;;;;5028173;28;20051;-75
2023/07/06 06:27:19;;;;;;;4.20;2.55;;;18.90;59.20;;;;;;5044075;28;20147;-76
2023/07/06 06:29:46;;;;;;;4.03;2.13;;;19.00;60.10;;;;;;5045203;28;20471;-76
2023/07/06 06:32:13;;;;;;;2.65;1.45;;;19.10;59.90;;;;;;5050232;28;20575;-77
2023/07/06 06:34:40;;;;;;;3.58;1.83;;;19.20;60.10;;;;;;5051908;28;20042;-76
2023/07/06 06:37:09;;;;;;;2.75;1.85;;;19.30;60.40;;;;;;5040145;28;20540;-76
2023/07/06 06:39:35;;;;;;;3.70;1.67;;;19.40;60.60;;;;;;5042747;28;20067;-77
2023/07/06 06:42:02;;;;;;;2.15;1.90;;;19.40;60.60;;;;;;5041505;28;20037;-76
2023/07/06 06:44:31;;;;;;;2.05;1.73;;;19.50;60.70;;;;;;5043911;28;20032;-75
2023/07/06 06:47:00;;;;;;;2.42;1.52;;;19.50;61.40;;;;;;5043348;28;20047;-76
2023/07/06 06:49:27;;;;;;;2.10;1.70;;;19.60;61.00;;;;;;5053990;28;20135;-76
2023/07/06 06:51:52;;;;;;;4.53;2.13;;;19.60;61.00;;;;;;5052174;28;20033;-76
2023/07/06 06:54:19;;;;;;;2.05;1.63;;;19.70;61.20;;;;;;5037342;28;20175;-78
2023/07/06 06:56:45;;;;;;;2.15;1.33;;;19.70;61.20;;;;;;5033267;28;20028;-78
2023/07/06 06:59:12;;;;;;;1.90;1.48;;;19.80;61.50;;;;;;5047668;28;20140;-78
2023/07/06 07:01:40;;;;;;;6.07;2.13;;;19.80;61.70;;;;;;5024430;28;20037;-79
2023/07/06 07:04:09;;;;;;;4.03;1.40;;;19.90;61.90;;;;;;5037696;28;20039;-78
2023/07/06 07:06:41;;;;;;;12.85;2.42;;;20.00;62.10;;;;;;5035420;28;20496;-77
2023/07/06 07:09:10;;;;;;;6.20;2.50;;;20.20;62.30;;;;;;5051213;28;20040;-78
2023/07/06 07:11:36;;;;;;;3.60;1.25;;;20.30;62.30;;;;;;5030919;28;20036;-77
2023/07/06 07:14:03;;;;;;;3.03;1.33;;;20.40;62.20;;;;;;5039714;28;20043;-77
2023/07/06 07:16:29;;;;;;;2.65;1.48;;;20.60;62.30;;;;;;5022430;28;20033;-77
2023/07/06 07:18:58;;;;;;;2.22;1.50;;;20.70;62.20;;;;;;5030965;28;20514;-79
2023/07/06 07:21:24;;;;;;;3.53;1.40;;;20.80;62.20;;;;;;5038548;28;20036;-77
2023/07/06 07:23:49;;;;;;;2.95;1.50;;;21.30;62.50;;;;;;5036546;28;20032;-76
2023/07/06 07:26:21;;;;;;;3.42;1.95;;;22.00;62.10;;;;;;5042585;28;20047;-77
2023/07/06 07:28:48;;;;;;;2.33;1.48;;;22.70;61.60;;;;;;5051536;28;20047;-77
2023/07/06 07:31:15;;;;;;;3.47;1.95;;;23.30;61.40;;;;;;5051072;28;20020;-78
2023/07/06 07:33:41;;;;;;;2.42;1.70;;;23.80;61.10;;;;;;5052170;28;20153;-77
2023/07/06 07:36:09;;;;;;;4.30;1.70;;;24.20;61.30;;;;;;5018742;28;20059;-77
2023/07/06 07:38:36;;;;;;;2.33;1.30;;;24.60;60.30;;;;;;5035211;28;20037;-78
2023/07/06 07:41:03;;;;;;;4.85;1.98;;;25.00;60.00;;;;;;5049401;28;20036;-77
2023/07/06 07:43:32;;;;;;;1.95;1.63;;;25.40;58.90;;;;;;5046330;28;20043;-77
2023/07/06 07:46:01;;;;;;;2.40;1.60;;;25.80;58.00;;;;;;5050619;28;20069;-78
2023/07/06 07:48:27;;;;;;;2.28;1.55;;;26.40;56.90;;;;;;5052833;28;20195;-78
2023/07/06 07:51:00;;;;;;;3.55;1.80;;;27.10;55.50;;;;;;5053046;28;20462;-78
2023/07/06 07:53:29;;;;;;;3.63;1.73;;;27.50;54.20;;;;;;5028063;28;20595;-79
2023/07/06 07:55:56;;;;;;;3.97;1.58;;;27.80;53.40;;;;;;5039975;28;20115;-79
2023/07/06 07:58:23;;;;;;;3.30;1.67;;;27.90;52.90;;;;;;5029489;28;20581;-78
2023/07/06 08:00:58;;;;;;;2.55;1.40;;;27.90;53.00;;;;;;5041871;28;20487;-78
2023/07/06 08:03:25;;;;;;;3.45;1.65;;;28.20;52.80;;;;;;5053613;28;20040;-77
2023/07/06 08:05:55;;;;;;;3.85;1.50;;;28.60;52.00;;;;;;5049933;28;20587;-77
2023/07/06 08:08:23;;;;;;;6.15;1.73;;;28.80;51.10;;;;;;5036684;28;20105;-78
2023/07/06 08:10:53;;;;;;;1.58;1.20;;;28.80;51.00;;;;;;5017930;28;20090;-77
2023/07/06 08:13:20;;;;;;;2.55;1.63;;;28.50;51.10;;;;;;5037811;28;20561;-78
2023/07/06 08:15:47;;;;;;;2.33;1.40;;;28.30;51.40;;;;;;5050030;28;20458;-78
2023/07/06 08:18:14;;;;;;;5.13;1.77;;;28.00;51.80;;;;;;5025393;28;20043;-78
2023/07/06 08:20:43;;;;;;;2.05;1.45;;;27.80;51.80;;;;;;5057025;28;20450;-78
2023/07/06 08:23:12;;;;;;;2.05;1.40;;;27.70;52.00;;;;;;5040055;28;20037;-78
2023/07/06 08:25:40;;;;;;;4.22;1.80;;;27.50;52.10;;;;;;5042489;28;20473;-79
2023/07/06 08:28:08;;;;;;;4.43;1.45;;;27.40;52.30;;;;;;5041684;28;20032;-78
2023/07/06 08:30:40;;;;;;;3.90;1.52;;;27.20;52.30;;;;;;5049985;28;20441;-79
2023/07/06 08:33:09;;;;;;;2.15;1.38;;;27.10;52.50;;;;;;5029848;28;20044;-77
2023/07/06 08:35:44;;;;;;;1.30;0.98;;;27.00;52.60;;;;;;5039164;28;20115;-79
2023/07/06 08:38:16;;;;;;;3.63;1.63;;;27.00;52.50;;;;;;5036974;28;20058;-79
2023/07/06 08:40:47;;;;;;;6.40;1.63;;;26.90;52.60;;;;;;5047758;28;20113;-78
2023/07/06 08:43:25;;;;;;;1.92;1.15;;;26.90;52.50;;;;;;5037713;28;20029;-79
2023/07/06 08:45:58;;;;;;;4.15;1.42;;;26.90;52.30;;;;;;5029445;28;20059;-80
2023/07/06 08:48:27;;;;;;;1.92;1.00;;;27.00;52.30;;;;;;5037085;28;20151;-79
2023/07/06 08:50:58;;;;;;;1.92;1.20;;;27.10;52.20;;;;;;5040963;28;20056;-79
2023/07/06 08:53:28;;;;;;;3.40;1.52;;;27.10;51.90;;;;;;5050929;28;20032;-79
2023/07/06 08:55:57;;;;;;;1.63;1.17;;;27.20;51.70;;;;;;5041913;28;20215;-79
2023/07/06 08:58:29;;;;;;;2.70;1.48;;;27.20;51.50;;;;;;5039459;28;20131;-79
2023/07/06 09:01:17;;;;;;;1.88;1.40;;;27.30;51.40;;;;;;5031239;28;20036;-79
2023/07/06 09:03:50;;;;;;;2.70;1.30;;;27.40;51.10;;;;;;5046235;28;20039;-79
2023/07/06 09:06:22;;;;;;;2.33;1.92;;;27.50;51.00;;;;;;5047156;28;20487;-79
2023/07/06 09:09:01;;;;;;;3.67;1.45;;;27.70;50.80;;;;;;5039818;28;20044;-79
2023/07/06 09:11:33;;;;;;;2.97;1.83;;;28.00;50.50;;;;;;5047313;28;20037;-79
2023/07/06 09:14:05;;;;;;;3.50;1.67;;;28.10;50.10;;;;;;5046578;28;20094;-78
2023/07/06 09:16:47;;;;;;;2.00;1.27;;;28.20;49.80;;;;;;5043591;28;20566;-80
2023/07/06 09:19:15;;;;;;;1.58;1.13;;;28.40;49.40;;;;;;5033259;28;20044;-79
2023/07/06 09:21:50;;;;;;;3.58;1.20;;;28.50;49.30;;;;;;5053676;28;20037;-80
2023/07/06 09:24:17;;;;;;;4.80;2.33;;;28.60;49.00;;;;;;5040165;28;20458;-80
2023/07/06 09:26:44;;;;;;;4.85;2.20;;;28.80;48.80;;;;;;5039777;28;20040;-81
2023/07/06 09:29:18;;;;;;;7.32;1.85;;;28.80;48.30;;;;;;5049288;28;20037;-81
2023/07/06 09:31:45;;;;;;;5.63;2.08;;;29.00;48.00;;;;;;5032091;28;20044;-83
2023/07/06 09:34:27;;;;;;;2.20;1.85;;;29.10;47.70;;;;;;5034634;28;20044;-82
2023/07/06 09:36:56;;;;;;;3.25;2.05;;;29.10;47.40;;;;;;5039849;28;20044;-81
2023/07/06 09:39:23;;;;;;;7.50;1.77;;;29.10;47.50;;;;;;5056230;28;20074;-81
2023/07/06 09:41:53;;;;;;;3.53;1.75;;;29.20;47.50;;;;;;5052222;28;20037;-82
2023/07/06 09:44:29;;;;;;;1.90;1.55;;;29.30;47.50;;;;;;5044754;28;20071;-82
2023/07/06 09:46:57;;;;;;;2.42;1.70;;;29.40;47.30;;;;;;5034002;28;20291;-82
2023/07/06 09:49:32;;;;;;;2.53;1.35;;;29.60;47.20;;;;;;5051996;28;20040;-82
2023/07/06 09:52:05;;;;;;;2.30;1.33;;;29.80;46.90;;;;;;5040901;28;20532;-82
2023/07/06 09:54:45;;;;;;;2.05;1.30;;;30.10;46.80;;;;;;5047956;28;20074;-82
2023/07/06 09:57:17;;;;;;;2.58;1.23;;;30.20;46.50;;;;;;5046544;28;20287;-83
2023/07/06 09:59:48;;;;;;;1.52;1.20;;;30.40;46.50;;;;;;5043322;28;20033;-82
2023/07/06 10:02:45;;;;;;;2.28;1.45;;;30.50;46.30;;;;;;5052814;28;20040;-82
2023/07/06 10:05:32;;;;;;;5.18;1.63;;;30.70;45.90;;;;;;5035845;28;20025;-82
2023/07/06 10:08:07;;;;;;;3.80;1.33;;;30.80;45.80;;;;;;5038944;28;20067;-82
2023/07/06 10:10:36;;;;;;;3.70;1.77;;;30.90;45.80;;;;;;5049087;28;20045;-82
2023/07/06 10:13:05;;;;;;;3.17;1.25;;;30.90;45.70;;;;;;5040559;28;20075;-82
2023/07/06 10:15:45;;;;;;;2.17;1.50;;;31.00;45.70;;;;;;5046586;28;20043;-82
2023/07/06 10:18:20;;;;;;;5.95;1.95;;;31.00;45.60;;;;;;5041305;28;20763;-83
2023/07/06 10:21:08;;;;;;;2.25;1.42;;;31.00;45.50;;;;;;5055150;28;20051;-81
2023/07/06 10:23:42;;;;;;;1.30;1.20;;;31.00;45.30;;;;;;5050116;28;20041;-81
2023/07/06 10:26:28;;;;;;;3.22;1.50;;;31.00;45.30;;;;;;5038503;28;20090;-81
2023/07/06 10:29:09;;;;;;;1.83;1.08;;;31.00;45.10;;;;;;5037569;28;20380;-82
2023/07/06 10:31:42;;;;;;;2.35;1.48;;;30.90;45.20;;;;;;5043062;28;20395;-81
2023/07/06 10:34:12;;;;;;;2.78;1.48;;;30.90;45.20;;;;;;5037917;28;20309;-81
2023/07/06 10:36:39;;;;;;;3.75;1.60;;;30.90;45.20;;;;;;5029601;28;20039;-82
2023/07/06 10:39:25;;;;;;;2.40;1.55;;;30.80;45.20;;;;;;5037895;28;20175;-81
2023/07/06 10:42:19;;;;;;;1.85;1.20;;;30.80;45.10;;;;;;5042453;28;20037;-81
2023/07/06 10:44:50;;;;;;;2.58;1.48;;;30.70;45.10;;;;;;5016272;28;20094;-83
2023/07/06 10:47:29;;;;;;;2.22;1.33;;;30.70;45.30;;;;;;5046756;28;20472;-82
2023/07/06 10:50:07;;;;;;;3.30;1.60;;;30.60;45.10;;;;;;5048080;28;20055;-83
2023/07/06 10:52:43;;;;;;;3.05;1.70;;;30.60;45.10;;;;;;5032364;28;20059;-82
2023/07/06 10:55:25;;;;;;;2.35;1.38;;;30.60;45.10;;;;;;5042394;28;20039;-81
2023/07/06 10:57:52;;;;;;;1.63;1.25;;;30.50;45.10;;;;;;5031121;28;20549;-82
2023/07/06 11:00:28;;;;;;;2.97;1.65;;;30.50;45.20;;;;;;5037569;28;20052;-82
2023/07/06 11:02:56;;;;;;;2.35;1.52;;;30.40;45.10;;;;;;5045344;28;20041;-81
2023/07/06 11:05:32;;;;;;;1.65;1.10;;;30.50;45.20;;;;;;5014077;28;20388;-80
2023/07/06 11:08:10;;;;;;;1.80;1.48;;;30.90;44.90;;;;;;5042852;28;20392;-80
2023/07/06 11:10:37;;;;;;;1.23;1.13;;;31.20;44.40;;;;;;5033262;28;20051;-81
2023/07/06 11:13:06;;;;;;;1.83;1.27;;;31.60;44.10;;;;;;5035406;28;20493;-81
2023/07/06 11:15:38;;;;;;;1.77;1.08;;;32.00;43.60;;;;;;5047388;28;20025;-80
2023/07/06 11:18:21;;;;;;;2.20;1.40;;;32.20;43.10;;;;;;5048637;28;20476;-80
2023/07/06 11:21:19;;;;;;;2.03;1.30;;;32.30;42.80;;;;;;5049325;28;20041;-80
2023/07/06 11:23:47;;;;;;;1.80;1.23;;;32.30;42.80;;;;;;5052586;28;20496;-80
2023/07/06 11:26:54;;;;;;;1.20;0.88;;;32.40;42.90;;;;;;5047316;28;20060;-80
2023/07/06 11:29:26;;;;;;;1.63;1.30;;;32.50;42.90;;;;;;5047517;28;20060;-81
2023/07/06 11:31:58;;;;;;;2.08;1.05;;;32.50;42.70;;;;;;5053007;28;20044;-80
2023/07/06 11:34:40;;;;;;;2.58;1.70;;;32.50;42.50;;;;;;5035852;28;20094;-80
2023/07/06 11:37:15;;;;;;;1.73;1.30;;;32.60;42.40;;;;;;5029236;28;20535;-82
2023/07/06 11:40:06;;;;;;;2.17;1.60;;;32.70;42.40;;;;;;5032679;28;20043;-82
2023/07/06 11:43:08;;;;;;;1.48;1.20;;;32.90;42.10;;;;;;5017365;28;20329;-80
2023/07/06 11:45:56;;;;;;;2.17;1.35;;;33.10;41.90;;;;;;5044809;28;20493;-80
2023/07/06 11:48:32;;;;;;;1.57;1.33;;;33.50;41.70;;;;;;5049381;28;20072;-80
2023/07/06 11:51:01;;;;;;;1.67;1.58;;;33.80;41.40;;;;;;5053480;28;20393;-79
2023/07/06 11:53:44;;;;;;;1.85;1.25;;;34.00;41.00;;;;;;5053692;28;20039;-80
2023/07/06 11:59:36;;;;;;;1.95;1.48;;;34.50;40.30;;;;;;5048683;28;20424;-81
2023/07/06 12:02:16;;;;;;;2.00;1.40;;;34.50;40.20;;;;;;5048237;28;20416;-81
2023/07/06 12:04:50;;;;;;;3.13;1.30;;;34.30;40.20;;;;;;5046175;28;20274;-80
2023/07/06 12:07:28;;;;;;;1.63;1.52;;;34.10;40.50;;;;;;5056939;28;20402;-81
2023/07/06 12:09:54;;;;;;;1.25;1.15;;;33.80;40.50;;;;;;5036998;28;20652;-80
2023/07/06 12:12:32;;;;;;;1.88;1.48;;;33.70;40.80;;;;;;5047052;28;20057;-81
2023/07/06 12:15:04;;;;;;;2.47;1.60;;;33.60;40.80;;;;;;5049740;28;20049;-82
2023/07/06 12:17:55;;;;;;;2.40;1.50;;;33.60;40.70;;;;;;5035914;28;20028;-81
2023/07/06 12:20:31;;;;;;;3.58;1.95;;;33.70;40.60;;;;;;5052587;28;20392;-80
2023/07/06 12:23:04;;;;;;;1.80;1.45;;;33.70;40.60;;;;;;5048521;28;20025;-81
2023/07/06 12:25:31;;;;;;;1.83;1.42;;;33.80;40.50;;;;;;5045568;28;20028;-81
2023/07/06 12:28:09;;;;;;;2.30;1.30;;;34.10;40.20;;;;;;5038081;28;20045;-81
2023/07/06 12:30:43;;;;;;;1.38;1.27;;;34.30;39.80;;;;;;5050142;28;20039;-80
2023/07/06 12:33:16;;;;;;;2.53;1.30;;;34.40;39.60;;;;;;5051939;28;20055;-81
2023/07/06 12:35:43;;;;;;;2.78;1.40;;;34.60;39.50;;;;;;5032820;28;20032;-81
2023/07/06 12:38:19;;;;;;;2.92;1.65;;;34.80;39.20;;;;;;5036265;28;20037;-81
2023/07/06 12:40:49;;;;;;;2.13;1.40;;;35.10;38.90;;;;;;5031780;28;20102;-82
2023/07/06 12:43:30;;;;;;;1.60;1.27;;;35.20;38.60;;;;;;5037890;28;20515;-82
2023/07/06 12:45:58;;;;;;;3.15;1.83;;;35.40;38.20;;;;;;5033877;28;20269;-81
2023/07/06 12:48:25;;;;;;;1.48;1.17;;;35.60;38.30;;;;;;5014727;28;20048;-81
2023/07/06 12:50:54;;;;;;;1.73;1.38;;;35.70;37.90;;;;;;5029843;28;20033;-81
2023/07/06 12:53:33;;;;;;;1.95;1.45;;;35.90;37.80;;;;;;5031317;28;20148;-81
2023/07/06 12:56:13;;;;;;;2.13;1.40;;;36.00;37.60;;;;;;5047871;28;20048;-81
2023/07/06 12:58:46;;;;;;;2.72;1.58;;;36.20;37.40;;;;;;5051946;28;20044;-81
2023/07/06 13:01:20;;;;;;;2.35;1.42;;;36.20;37.20;;;;;;5031522;28;20020;-81
2023/07/06 13:03:56;;;;;;;2.30;1.48;;;36.20;37.20;;;;;;5029175;28;20036;-82
2023/07/06 13:06:24;;;;;;;1.55;1.40;;;36.30;37.10;;;;;;5026901;28;20029;-80
2023/07/06 13:09:00;;;;;;;2.63;1.73;;;36.50;37.00;;;;;;5039447;28;20041;-82
2023/07/06 13:11:46;;;;;;;1.42;1.02;;;36.60;36.60;;;;;;5036877;28;20047;-81